KACK/ACK METAR and TAF weather

Enter ICAO airport designator
Station Type Date Time Source
KACK METAR 2019/05/25 15:53 UTC NOAA

KACK 251553Z 32012G16KT 10SM CLR 19/09 A3021 RMK AO2 SLP231 T01940089


Station Type Date Time Source
KACK Decoded METAR 2019/05/25 15:53 UTC NOAA

NANTUCKET MEMORIAL AIRPORT, MA, United States (KACK) 41-15N 70-04W 16M
May 25, 2019 - 11:53 AM EDT / 2019.05.25 1553 UTC
Wind: from the NW (320 degrees) at 14 MPH (12 KT) gusting to 18 MPH (16 KT):0
Visibility: 10 mile(s):0
Sky conditions: clear
Temperature: 66.9 F (19.4 C)
Dew Point: 48.0 F (8.9 C)
Relative Humidity: 50%
Pressure (altimeter): 30.21 in. Hg (1023 hPa)
ob: KACK 251553Z 32012G16KT 10SM CLR 19/09 A3021 RMK AO2 SLP231 T01940089
cycle: 16

Station Type Date Time Source
KACK TAF 2019/05/25 15:18 UTC NOAA

TAF
AMD KACK 251516Z 2515/2612 32010KT P6SM SKC
FM252100 24009KT P6SM SCT250
FM260500 20011KT P6SM VCSH BKN080
FM260800 20015G22KT 5SM -SHRA OVC035
FM261000 19016G24KT 6SM -SHRA OVC035
FM261100 19017G24KT 3SM -SHRA BR OVC010

Example: see airport list